sensor_id;sensor_type;location;lat;lon;timestamp;P1;durP1;ratioP1;P2;durP2;ratioP2
26042;SDS011;13818;52.156;5.382;2023-09-12T00:00:24;36.50;;;16.45;;
26042;SDS011;13818;52.156;5.382;2023-09-12T00:02:51;30.15;;;14.13;;
26042;SDS011;13818;52.156;5.382;2023-09-12T00:05:18;35.97;;;17.08;;
26042;SDS011;13818;52.156;5.382;2023-09-12T00:07:44;28.63;;;14.05;;
26042;SDS011;13818;52.156;5.382;2023-09-12T00:10:10;28.77;;;13.25;;
26042;SDS011;13818;52.156;5.382;2023-09-12T00:12:37;33.15;;;15.27;;
26042;SDS011;13818;52.156;5.382;2023-09-12T00:15:03;32.22;;;15.13;;
26042;SDS011;13818;52.156;5.382;2023-09-12T00:17:30;29.17;;;14.00;;
26042;SDS011;13818;52.156;5.382;2023-09-12T00:19:58;29.85;;;13.98;;
26042;SDS011;13818;52.156;5.382;2023-09-12T00:22:24;41.10;;;14.73;;
26042;SDS011;13818;52.156;5.382;2023-09-12T00:24:51;31.95;;;14.80;;
26042;SDS011;13818;52.156;5.382;2023-09-12T00:27:17;35.40;;;15.75;;
26042;SDS011;13818;52.156;5.382;2023-09-12T00:29:44;32.85;;;15.40;;
26042;SDS011;13818;52.156;5.382;2023-09-12T00:32:10;33.70;;;14.48;;
26042;SDS011;13818;52.156;5.382;2023-09-12T00:34:36;28.25;;;14.40;;
26042;SDS011;13818;52.156;5.382;2023-09-12T00:37:04;32.60;;;13.98;;
26042;SDS011;13818;52.156;5.382;2023-09-12T00:39:31;30.98;;;14.10;;
26042;SDS011;13818;52.156;5.382;2023-09-12T00:41:57;28.55;;;14.27;;
26042;SDS011;13818;52.156;5.382;2023-09-12T00:44:24;28.20;;;12.98;;
26042;SDS011;13818;52.156;5.382;2023-09-12T00:46:50;25.92;;;12.43;;
26042;SDS011;13818;52.156;5.382;2023-09-12T00:49:18;25.50;;;12.88;;
26042;SDS011;13818;52.156;5.382;2023-09-12T00:51:47;26.20;;;13.57;;
26042;SDS011;13818;52.156;5.382;2023-09-12T00:54:17;29.30;;;13.27;;
26042;SDS011;13818;52.156;5.382;2023-09-12T00:56:43;29.33;;;13.60;;
26042;SDS011;13818;52.156;5.382;2023-09-12T00:59:10;27.70;;;14.52;;
26042;SDS011;13818;52.156;5.382;2023-09-12T01:01:37;35.20;;;13.85;;
26042;SDS011;13818;52.156;5.382;2023-09-12T01:04:04;36.15;;;15.90;;
26042;SDS011;13818;52.156;5.382;2023-09-12T01:06:31;36.97;;;15.38;;
26042;SDS011;13818;52.156;5.382;2023-09-12T01:08:59;33.22;;;14.45;;
26042;SDS011;13818;52.156;5.382;2023-09-12T01:11:27;36.85;;;15.40;;
26042;SDS011;13818;52.156;5.382;2023-09-12T01:13:54;36.22;;;14.73;;
26042;SDS011;13818;52.156;5.382;2023-09-12T01:16:20;31.42;;;14.02;;
26042;SDS011;13818;52.156;5.382;2023-09-12T01:18:47;29.70;;;13.50;;
26042;SDS011;13818;52.156;5.382;2023-09-12T01:21:25;31.92;;;14.10;;
26042;SDS011;13818;52.156;5.382;2023-09-12T01:24:21;32.38;;;12.52;;
26042;SDS011;13818;52.156;5.382;2023-09-12T01:27:22;29.00;;;11.70;;
26042;SDS011;13818;52.156;5.382;2023-09-12T01:29:55;29.55;;;13.27;;
26042;SDS011;13818;52.156;5.382;2023-09-12T01:32:23;30.75;;;12.77;;
26042;SDS011;13818;52.156;5.382;2023-09-12T01:34:50;33.58;;;13.15;;
26042;SDS011;13818;52.156;5.382;2023-09-12T01:37:16;30.77;;;12.05;;
26042;SDS011;13818;52.156;5.382;2023-09-12T01:39:43;33.45;;;14.35;;
26042;SDS011;13818;52.156;5.382;2023-09-12T01:42:09;30.05;;;12.98;;
26042;SDS011;13818;52.156;5.382;2023-09-12T01:44:40;29.23;;;13.02;;
26042;SDS011;13818;52.156;5.382;2023-09-12T01:47:09;27.33;;;12.13;;
26042;SDS011;13818;52.156;5.382;2023-09-12T01:49:37;31.08;;;12.80;;
26042;SDS011;13818;52.156;5.382;2023-09-12T01:52:06;30.27;;;14.75;;
26042;SDS011;13818;52.156;5.382;2023-09-12T01:54:33;27.67;;;13.13;;
26042;SDS011;13818;52.156;5.382;2023-09-12T01:57:01;35.60;;;14.55;;
26042;SDS011;13818;52.156;5.382;2023-09-12T01:59:28;30.55;;;14.27;;
26042;SDS011;13818;52.156;5.382;2023-09-12T02:01:56;29.63;;;13.05;;
26042;SDS011;13818;52.156;5.382;2023-09-12T02:04:22;29.85;;;13.80;;
26042;SDS011;13818;52.156;5.382;2023-09-12T02:06:48;34.33;;;15.27;;
26042;SDS011;13818;52.156;5.382;2023-09-12T02:09:15;32.05;;;14.15;;
26042;SDS011;13818;52.156;5.382;2023-09-12T02:11:41;34.65;;;15.00;;
26042;SDS011;13818;52.156;5.382;2023-09-12T02:14:08;29.98;;;13.82;;
26042;SDS011;13818;52.156;5.382;2023-09-12T02:16:35;29.50;;;13.88;;
26042;SDS011;13818;52.156;5.382;2023-09-12T02:21:30;30.27;;;13.05;;
26042;SDS011;13818;52.156;5.382;2023-09-12T02:23:57;33.05;;;14.07;;
26042;SDS011;13818;52.156;5.382;2023-09-12T02:26:23;33.83;;;14.48;;
26042;SDS011;13818;52.156;5.382;2023-09-12T02:28:50;29.30;;;13.25;;
26042;SDS011;13818;52.156;5.382;2023-09-12T02:31:16;36.17;;;15.65;;
26042;SDS011;13818;52.156;5.382;2023-09-12T02:33:42;33.30;;;15.00;;
26042;SDS011;13818;52.156;5.382;2023-09-12T02:36:10;29.13;;;13.73;;
26042;SDS011;13818;52.156;5.382;2023-09-12T02:38:37;30.98;;;13.68;;
26042;SDS011;13818;52.156;5.382;2023-09-12T02:41:03;28.42;;;12.77;;
26042;SDS011;13818;52.156;5.382;2023-09-12T02:43:30;25.58;;;12.68;;
26042;SDS011;13818;52.156;5.382;2023-09-12T02:45:57;26.23;;;12.00;;
26042;SDS011;13818;52.156;5.382;2023-09-12T02:48:23;25.75;;;12.65;;
26042;SDS011;13818;52.156;5.382;2023-09-12T02:50:50;23.52;;;12.18;;
26042;SDS011;13818;52.156;5.382;2023-09-12T02:53:17;27.60;;;13.18;;
26042;SDS011;13818;52.156;5.382;2023-09-12T02:55:44;25.45;;;11.85;;
26042;SDS011;13818;52.156;5.382;2023-09-12T02:58:10;24.80;;;12.55;;
26042;SDS011;13818;52.156;5.382;2023-09-12T03:00:37;20.15;;;10.52;;
26042;SDS011;13818;52.156;5.382;2023-09-12T03:03:05;25.48;;;12.18;;
26042;SDS011;13818;52.156;5.382;2023-09-12T03:05:31;26.50;;;11.20;;
26042;SDS011;13818;52.156;5.382;2023-09-12T03:07:58;29.17;;;12.38;;
26042;SDS011;13818;52.156;5.382;2023-09-12T03:10:26;24.40;;;12.07;;
26042;SDS011;13818;52.156;5.382;2023-09-12T03:12:52;27.77;;;13.00;;
26042;SDS011;13818;52.156;5.382;2023-09-12T03:15:18;25.98;;;11.63;;
26042;SDS011;13818;52.156;5.382;2023-09-12T03:17:45;27.38;;;12.70;;
26042;SDS011;13818;52.156;5.382;2023-09-12T03:20:11;27.60;;;11.77;;
26042;SDS011;13818;52.156;5.382;2023-09-12T03:22:38;24.58;;;10.68;;
26042;SDS011;13818;52.156;5.382;2023-09-12T03:25:04;23.25;;;11.38;;
26042;SDS011;13818;52.156;5.382;2023-09-12T03:27:32;24.55;;;11.35;;
26042;SDS011;13818;52.156;5.382;2023-09-12T03:29:59;27.90;;;13.20;;
26042;SDS011;13818;52.156;5.382;2023-09-12T03:32:25;28.83;;;12.82;;
26042;SDS011;13818;52.156;5.382;2023-09-12T03:34:52;31.50;;;13.15;;
26042;SDS011;13818;52.156;5.382;2023-09-12T03:37:18;31.77;;;13.50;;
26042;SDS011;13818;52.156;5.382;2023-09-12T03:39:44;25.45;;;10.73;;
26042;SDS011;13818;52.156;5.382;2023-09-12T03:42:11;33.92;;;12.85;;
26042;SDS011;13818;52.156;5.382;2023-09-12T03:44:39;25.90;;;11.38;;
26042;SDS011;13818;52.156;5.382;2023-09-12T03:47:05;28.85;;;12.25;;
26042;SDS011;13818;52.156;5.382;2023-09-12T03:49:31;28.13;;;12.43;;
26042;SDS011;13818;52.156;5.382;2023-09-12T03:51:58;27.50;;;12.02;;
26042;SDS011;13818;52.156;5.382;2023-09-12T03:54:24;26.98;;;12.10;;
26042;SDS011;13818;52.156;5.382;2023-09-12T03:56:51;30.98;;;12.88;;
26042;SDS011;13818;52.156;5.382;2023-09-12T03:59:17;30.30;;;12.90;;
26042;SDS011;13818;52.156;5.382;2023-09-12T04:01:45;30.73;;;12.57;;
26042;SDS011;13818;52.156;5.382;2023-09-12T04:04:12;30.15;;;12.32;;
26042;SDS011;13818;52.156;5.382;2023-09-12T04:06:39;26.60;;;12.50;;
26042;SDS011;13818;52.156;5.382;2023-09-12T04:09:06;32.95;;;14.25;;
26042;SDS011;13818;52.156;5.382;2023-09-12T04:11:32;30.27;;;14.80;;
26042;SDS011;13818;52.156;5.382;2023-09-12T04:13:59;33.60;;;13.73;;
26042;SDS011;13818;52.156;5.382;2023-09-12T04:16:25;29.80;;;14.05;;
26042;SDS011;13818;52.156;5.382;2023-09-12T04:18:53;35.78;;;15.98;;
26042;SDS011;13818;52.156;5.382;2023-09-12T04:21:19;34.75;;;15.27;;
26042;SDS011;13818;52.156;5.382;2023-09-12T04:23:46;38.70;;;15.20;;
26042;SDS011;13818;52.156;5.382;2023-09-12T04:26:12;36.20;;;15.43;;
26042;SDS011;13818;52.156;5.382;2023-09-12T04:28:38;34.92;;;13.45;;
26042;SDS011;13818;52.156;5.382;2023-09-12T04:31:05;32.05;;;13.85;;
26042;SDS011;13818;52.156;5.382;2023-09-12T04:33:31;35.33;;;14.30;;
26042;SDS011;13818;52.156;5.382;2023-09-12T04:36:00;30.92;;;12.00;;
26042;SDS011;13818;52.156;5.382;2023-09-12T04:38:27;28.02;;;11.98;;
26042;SDS011;13818;52.156;5.382;2023-09-12T04:40:54;27.88;;;11.02;;
26042;SDS011;13818;52.156;5.382;2023-09-12T04:43:20;23.92;;;11.93;;
26042;SDS011;13818;52.156;5.382;2023-09-12T04:45:47;30.08;;;14.02;;
26042;SDS011;13818;52.156;5.382;2023-09-12T04:48:13;30.85;;;13.70;;
26042;SDS011;13818;52.156;5.382;2023-09-12T04:50:40;28.00;;;13.77;;
26042;SDS011;13818;52.156;5.382;2023-09-12T04:53:08;32.13;;;15.20;;
26042;SDS011;13818;52.156;5.382;2023-09-12T04:55:35;27.02;;;13.55;;
26042;SDS011;13818;52.156;5.382;2023-09-12T04:58:01;30.80;;;14.98;;
26042;SDS011;13818;52.156;5.382;2023-09-12T05:00:29;33.22;;;14.10;;
26042;SDS011;13818;52.156;5.382;2023-09-12T05:02:55;35.25;;;14.95;;
26042;SDS011;13818;52.156;5.382;2023-09-12T05:05:22;35.03;;;15.35;;
26042;SDS011;13818;52.156;5.382;2023-09-12T05:07:48;30.60;;;14.02;;
26042;SDS011;13818;52.156;5.382;2023-09-12T05:10:17;39.40;;;15.70;;
26042;SDS011;13818;52.156;5.382;2023-09-12T05:12:44;36.78;;;15.13;;
26042;SDS011;13818;52.156;5.382;2023-09-12T05:15:10;41.10;;;15.55;;
26042;SDS011;13818;52.156;5.382;2023-09-12T05:17:37;32.90;;;14.20;;
26042;SDS011;13818;52.156;5.382;2023-09-12T05:20:03;36.13;;;16.40;;
26042;SDS011;13818;52.156;5.382;2023-09-12T05:22:31;36.35;;;15.30;;
26042;SDS011;13818;52.156;5.382;2023-09-12T05:24:57;33.83;;;15.60;;
26042;SDS011;13818;52.156;5.382;2023-09-12T05:27:25;38.97;;;16.13;;
26042;SDS011;13818;52.156;5.382;2023-09-12T05:29:51;36.10;;;15.63;;
26042;SDS011;13818;52.156;5.382;2023-09-12T05:32:17;36.50;;;15.80;;
26042;SDS011;13818;52.156;5.382;2023-09-12T05:34:44;39.08;;;16.45;;
26042;SDS011;13818;52.156;5.382;2023-09-12T05:37:14;34.00;;;15.50;;
26042;SDS011;13818;52.156;5.382;2023-09-12T05:39:41;35.05;;;15.52;;
26042;SDS011;13818;52.156;5.382;2023-09-12T05:42:07;39.50;;;16.13;;
26042;SDS011;13818;52.156;5.382;2023-09-12T05:44:35;36.78;;;14.70;;
26042;SDS011;13818;52.156;5.382;2023-09-12T05:47:02;39.53;;;16.42;;
26042;SDS011;13818;52.156;5.382;2023-09-12T05:49:28;34.30;;;15.10;;
26042;SDS011;13818;52.156;5.382;2023-09-12T05:51:55;46.42;;;17.50;;
26042;SDS011;13818;52.156;5.382;2023-09-12T05:54:21;40.03;;;17.38;;
26042;SDS011;13818;52.156;5.382;2023-09-12T05:56:47;47.00;;;18.30;;
26042;SDS011;13818;52.156;5.382;2023-09-12T05:59:14;39.95;;;17.35;;
26042;SDS011;13818;52.156;5.382;2023-09-12T06:01:42;40.88;;;16.63;;
26042;SDS011;13818;52.156;5.382;2023-09-12T06:04:08;41.03;;;17.25;;
26042;SDS011;13818;52.156;5.382;2023-09-12T06:06:34;38.25;;;16.70;;
26042;SDS011;13818;52.156;5.382;2023-09-12T06:09:01;40.20;;;15.95;;
26042;SDS011;13818;52.156;5.382;2023-09-12T06:11:28;42.58;;;18.02;;
26042;SDS011;13818;52.156;5.382;2023-09-12T06:13:56;44.13;;;15.70;;
26042;SDS011;13818;52.156;5.382;2023-09-12T06:16:22;34.53;;;15.02;;
26042;SDS011;13818;52.156;5.382;2023-09-12T06:18:50;42.33;;;17.33;;
26042;SDS011;13818;52.156;5.382;2023-09-12T06:21:18;40.80;;;16.05;;
26042;SDS011;13818;52.156;5.382;2023-09-12T06:23:46;34.42;;;16.08;;
26042;SDS011;13818;52.156;5.382;2023-09-12T06:26:12;36.03;;;16.63;;
26042;SDS011;13818;52.156;5.382;2023-09-12T06:28:39;36.80;;;14.77;;
26042;SDS011;13818;52.156;5.382;2023-09-12T06:31:07;34.15;;;15.02;;
26042;SDS011;13818;52.156;5.382;2023-09-12T06:33:34;36.17;;;14.85;;
26042;SDS011;13818;52.156;5.382;2023-09-12T06:36:02;35.92;;;16.27;;
26042;SDS011;13818;52.156;5.382;2023-09-12T06:38:29;36.88;;;15.43;;
26042;SDS011;13818;52.156;5.382;2023-09-12T06:40:55;46.83;;;15.73;;
26042;SDS011;13818;52.156;5.382;2023-09-12T06:43:22;33.78;;;15.38;;
26042;SDS011;13818;52.156;5.382;2023-09-12T06:45:48;37.88;;;16.02;;
26042;SDS011;13818;52.156;5.382;2023-09-12T06:48:15;39.70;;;18.25;;
26042;SDS011;13818;52.156;5.382;2023-09-12T06:50:42;34.63;;;15.73;;
26042;SDS011;13818;52.156;5.382;2023-09-12T06:53:10;34.47;;;16.48;;
26042;SDS011;13818;52.156;5.382;2023-09-12T06:55:36;36.65;;;15.27;;
26042;SDS011;13818;52.156;5.382;2023-09-12T06:58:03;33.60;;;15.93;;
26042;SDS011;13818;52.156;5.382;2023-09-12T07:00:29;34.80;;;15.85;;
26042;SDS011;13818;52.156;5.382;2023-09-12T07:02:56;33.50;;;15.45;;
26042;SDS011;13818;52.156;5.382;2023-09-12T07:05:22;30.80;;;14.52;;
26042;SDS011;13818;52.156;5.382;2023-09-12T07:07:49;35.20;;;14.95;;
26042;SDS011;13818;52.156;5.382;2023-09-12T07:10:17;34.80;;;14.95;;
26042;SDS011;13818;52.156;5.382;2023-09-12T07:12:43;34.35;;;15.00;;
26042;SDS011;13818;52.156;5.382;2023-09-12T07:15:10;28.50;;;12.35;;
26042;SDS011;13818;52.156;5.382;2023-09-12T07:17:37;34.83;;;14.65;;
26042;SDS011;13818;52.156;5.382;2023-09-12T07:20:03;33.72;;;13.88;;
26042;SDS011;13818;52.156;5.382;2023-09-12T07:22:35;27.55;;;12.57;;
26042;SDS011;13818;52.156;5.382;2023-09-12T07:25:01;30.45;;;12.98;;
26042;SDS011;13818;52.156;5.382;2023-09-12T07:27:29;25.83;;;11.75;;
26042;SDS011;13818;52.156;5.382;2023-09-12T07:29:56;26.10;;;11.77;;
26042;SDS011;13818;52.156;5.382;2023-09-12T07:32:22;26.63;;;11.10;;
26042;SDS011;13818;52.156;5.382;2023-09-12T07:34:49;26.08;;;11.77;;
26042;SDS011;13818;52.156;5.382;2023-09-12T07:37:15;25.05;;;10.45;;
26042;SDS011;13818;52.156;5.382;2023-09-12T07:39:42;26.70;;;11.00;;
26042;SDS011;13818;52.156;5.382;2023-09-12T07:42:08;24.23;;;11.77;;
26042;SDS011;13818;52.156;5.382;2023-09-12T07:44:36;26.60;;;11.05;;
26042;SDS011;13818;52.156;5.382;2023-09-12T07:47:03;27.73;;;11.23;;
26042;SDS011;13818;52.156;5.382;2023-09-12T07:49:30;32.90;;;12.52;;
26042;SDS011;13818;52.156;5.382;2023-09-12T07:51:56;30.35;;;12.52;;
26042;SDS011;13818;52.156;5.382;2023-09-12T07:54:23;24.58;;;10.95;;
26042;SDS011;13818;52.156;5.382;2023-09-12T07:56:49;24.30;;;11.02;;
26042;SDS011;13818;52.156;5.382;2023-09-12T07:59:16;21.73;;;10.23;;
26042;SDS011;13818;52.156;5.382;2023-09-12T08:01:43;22.10;;;10.90;;
26042;SDS011;13818;52.156;5.382;2023-09-12T08:04:10;25.83;;;11.05;;
26042;SDS011;13818;52.156;5.382;2023-09-12T08:06:36;24.35;;;11.45;;
26042;SDS011;13818;52.156;5.382;2023-09-12T08:09:03;22.83;;;10.38;;
26042;SDS011;13818;52.156;5.382;2023-09-12T08:11:30;26.48;;;11.38;;
26042;SDS011;13818;52.156;5.382;2023-09-12T08:13:56;20.48;;;10.93;;
26042;SDS011;13818;52.156;5.382;2023-09-12T08:16:22;26.48;;;10.70;;
26042;SDS011;13818;52.156;5.382;2023-09-12T08:18:50;24.23;;;10.07;;
26042;SDS011;13818;52.156;5.382;2023-09-12T08:21:17;26.70;;;10.88;;
26042;SDS011;13818;52.156;5.382;2023-09-12T08:23:43;26.65;;;11.32;;
26042;SDS011;13818;52.156;5.382;2023-09-12T08:26:10;25.33;;;12.55;;
26042;SDS011;13818;52.156;5.382;2023-09-12T08:28:37;24.13;;;10.55;;
26042;SDS011;13818;52.156;5.382;2023-09-12T08:31:03;29.67;;;12.48;;
26042;SDS011;13818;52.156;5.382;2023-09-12T08:33:30;27.30;;;11.68;;
26042;SDS011;13818;52.156;5.382;2023-09-12T08:35:57;28.02;;;11.25;;
26042;SDS011;13818;52.156;5.382;2023-09-12T08:40:50;27.55;;;11.63;;
26042;SDS011;13818;52.156;5.382;2023-09-12T08:43:17;26.23;;;11.20;;
26042;SDS011;13818;52.156;5.382;2023-09-12T08:45:44;21.92;;;9.98;;
26042;SDS011;13818;52.156;5.382;2023-09-12T08:48:12;22.60;;;11.18;;
26042;SDS011;13818;52.156;5.382;2023-09-12T08:50:39;22.80;;;9.82;;
26042;SDS011;13818;52.156;5.382;2023-09-12T08:53:07;25.50;;;10.55;;
26042;SDS011;13818;52.156;5.382;2023-09-12T08:55:34;26.88;;;12.02;;
26042;SDS011;13818;52.156;5.382;2023-09-12T08:58:02;23.00;;;11.32;;
26042;SDS011;13818;52.156;5.382;2023-09-12T09:00:30;23.33;;;10.88;;
26042;SDS011;13818;52.156;5.382;2023-09-12T09:02:56;24.30;;;11.43;;
26042;SDS011;13818;52.156;5.382;2023-09-12T09:05:24;22.80;;;10.90;;
26042;SDS011;13818;52.156;5.382;2023-09-12T09:07:51;22.35;;;11.02;;
26042;SDS011;13818;52.156;5.382;2023-09-12T09:10:21;23.63;;;11.45;;
26042;SDS011;13818;52.156;5.382;2023-09-12T09:12:49;23.40;;;12.10;;
26042;SDS011;13818;52.156;5.382;2023-09-12T09:15:22;24.30;;;11.80;;
26042;SDS011;13818;52.156;5.382;2023-09-12T09:17:51;25.05;;;11.77;;
26042;SDS011;13818;52.156;5.382;2023-09-12T09:20:21;25.55;;;13.43;;
26042;SDS011;13818;52.156;5.382;2023-09-12T09:22:55;26.48;;;12.32;;
26042;SDS011;13818;52.156;5.382;2023-09-12T09:25:25;24.90;;;12.60;;
26042;SDS011;13818;52.156;5.382;2023-09-12T09:27:51;26.80;;;13.05;;
26042;SDS011;13818;52.156;5.382;2023-09-12T09:30:18;30.23;;;13.32;;
26042;SDS011;13818;52.156;5.382;2023-09-12T09:32:45;23.40;;;11.75;;
26042;SDS011;13818;52.156;5.382;2023-09-12T09:35:13;28.13;;;13.18;;
26042;SDS011;13818;52.156;5.382;2023-09-12T09:37:39;25.92;;;12.75;;
26042;SDS011;13818;52.156;5.382;2023-09-12T09:40:06;27.05;;;13.82;;
26042;SDS011;13818;52.156;5.382;2023-09-12T09:42:36;25.23;;;13.20;;
26042;SDS011;13818;52.156;5.382;2023-09-12T09:45:04;29.30;;;14.27;;
26042;SDS011;13818;52.156;5.382;2023-09-12T09:47:31;24.50;;;14.57;;
26042;SDS011;13818;52.156;5.382;2023-09-12T09:49:58;29.67;;;13.90;;
26042;SDS011;13818;52.156;5.382;2023-09-12T09:52:25;26.65;;;13.45;;
26042;SDS011;13818;52.156;5.382;2023-09-12T09:54:52;29.30;;;13.57;;
26042;SDS011;13818;52.156;5.382;2023-09-12T09:57:18;25.80;;;12.93;;
26042;SDS011;13818;52.156;5.382;2023-09-12T09:59:49;26.05;;;14.18;;
26042;SDS011;13818;52.156;5.382;2023-09-12T10:02:17;29.00;;;14.77;;
26042;SDS011;13818;52.156;5.382;2023-09-12T10:04:47;24.75;;;13.50;;
26042;SDS011;13818;52.156;5.382;2023-09-12T10:07:15;27.77;;;13.85;;
26042;SDS011;13818;52.156;5.382;2023-09-12T10:09:42;26.92;;;13.52;;
26042;SDS011;13818;52.156;5.382;2023-09-12T10:12:09;24.27;;;12.90;;
26042;SDS011;13818;52.156;5.382;2023-09-12T10:14:36;21.08;;;11.13;;
26042;SDS011;13818;52.156;5.382;2023-09-12T10:17:06;26.95;;;12.95;;
26042;SDS011;13818;52.156;5.382;2023-09-12T10:19:35;24.88;;;11.82;;
26042;SDS011;13818;52.156;5.382;2023-09-12T10:22:06;28.25;;;13.25;;
26042;SDS011;13818;52.156;5.382;2023-09-12T10:24:38;26.90;;;12.60;;
26042;SDS011;13818;52.156;5.382;2023-09-12T10:27:05;24.77;;;11.65;;
26042;SDS011;13818;52.156;5.382;2023-09-12T10:29:32;22.50;;;11.95;;
26042;SDS011;13818;52.156;5.382;2023-09-12T10:32:00;22.08;;;11.93;;
26042;SDS011;13818;52.156;5.382;2023-09-12T10:34:28;23.95;;;12.25;;
26042;SDS011;13818;52.156;5.382;2023-09-12T10:36:56;24.77;;;11.80;;
26042;SDS011;13818;52.156;5.382;2023-09-12T10:39:24;25.02;;;12.77;;
26042;SDS011;13818;52.156;5.382;2023-09-12T10:41:54;23.70;;;12.02;;
26042;SDS011;13818;52.156;5.382;2023-09-12T10:44:21;21.40;;;11.70;;
26042;SDS011;13818;52.156;5.382;2023-09-12T10:46:48;19.15;;;10.80;;
26042;SDS011;13818;52.156;5.382;2023-09-12T10:49:15;18.55;;;9.63;;
26042;SDS011;13818;52.156;5.382;2023-09-12T10:51:44;23.75;;;11.27;;
26042;SDS011;13818;52.156;5.382;2023-09-12T10:54:13;20.55;;;11.55;;
26042;SDS011;13818;52.156;5.382;2023-09-12T10:56:40;17.38;;;10.02;;
26042;SDS011;13818;52.156;5.382;2023-09-12T10:59:11;19.20;;;10.23;;
26042;SDS011;13818;52.156;5.382;2023-09-12T11:01:39;18.73;;;9.77;;
26042;SDS011;13818;52.156;5.382;2023-09-12T11:06:59;18.30;;;9.85;;
26042;SDS011;13818;52.156;5.382;2023-09-12T11:09:26;22.52;;;10.50;;
26042;SDS011;13818;52.156;5.382;2023-09-12T11:11:58;22.02;;;10.35;;
26042;SDS011;13818;52.156;5.382;2023-09-12T11:14:28;25.25;;;12.38;;
26042;SDS011;13818;52.156;5.382;2023-09-12T11:17:19;22.58;;;10.27;;
26042;SDS011;13818;52.156;5.382;2023-09-12T11:19:47;22.77;;;9.25;;
26042;SDS011;13818;52.156;5.382;2023-09-12T11:22:21;24.38;;;10.88;;
26042;SDS011;13818;52.156;5.382;2023-09-12T11:24:49;18.58;;;10.82;;
26042;SDS011;13818;52.156;5.382;2023-09-12T11:27:16;19.92;;;9.20;;
26042;SDS011;13818;52.156;5.382;2023-09-12T11:29:43;17.40;;;9.43;;
26042;SDS011;13818;52.156;5.382;2023-09-12T11:32:09;20.00;;;10.43;;
26042;SDS011;13818;52.156;5.382;2023-09-12T11:34:36;16.40;;;8.02;;
26042;SDS011;13818;52.156;5.382;2023-09-12T11:37:04;21.35;;;9.07;;
26042;SDS011;13818;52.156;5.382;2023-09-12T11:39:32;15.38;;;7.78;;
26042;SDS011;13818;52.156;5.382;2023-09-12T11:42:01;15.70;;;7.57;;
26042;SDS011;13818;52.156;5.382;2023-09-12T11:44:28;16.45;;;8.80;;
26042;SDS011;13818;52.156;5.382;2023-09-12T11:46:58;17.25;;;7.95;;
26042;SDS011;13818;52.156;5.382;2023-09-12T11:49:28;17.75;;;9.25;;
26042;SDS011;13818;52.156;5.382;2023-09-12T11:52:01;14.38;;;6.80;;
26042;SDS011;13818;52.156;5.382;2023-09-12T11:54:28;13.90;;;6.50;;
26042;SDS011;13818;52.156;5.382;2023-09-12T11:56:58;13.70;;;7.05;;
26042;SDS011;13818;52.156;5.382;2023-09-12T11:59:25;12.80;;;6.43;;
26042;SDS011;13818;52.156;5.382;2023-09-12T12:01:52;12.88;;;6.72;;
26042;SDS011;13818;52.156;5.382;2023-09-12T12:04:19;13.60;;;6.38;;
26042;SDS011;13818;52.156;5.382;2023-09-12T12:06:46;13.82;;;7.18;;
26042;SDS011;13818;52.156;5.382;2023-09-12T12:09:13;11.70;;;6.05;;
26042;SDS011;13818;52.156;5.382;2023-09-12T12:11:43;16.50;;;7.28;;
26042;SDS011;13818;52.156;5.382;2023-09-12T12:14:13;13.02;;;6.78;;
26042;SDS011;13818;52.156;5.382;2023-09-12T12:16:40;13.00;;;6.82;;
26042;SDS011;13818;52.156;5.382;2023-09-12T12:19:07;12.85;;;6.50;;
26042;SDS011;13818;52.156;5.382;2023-09-12T12:21:34;14.40;;;7.07;;
26042;SDS011;13818;52.156;5.382;2023-09-12T12:24:01;12.82;;;6.68;;
26042;SDS011;13818;52.156;5.382;2023-09-12T12:26:29;9.82;;;5.75;;
26042;SDS011;13818;52.156;5.382;2023-09-12T12:28:56;11.25;;;6.47;;
26042;SDS011;13818;52.156;5.382;2023-09-12T12:31:26;14.27;;;5.90;;
26042;SDS011;13818;52.156;5.382;2023-09-12T12:33:53;9.25;;;5.63;;
26042;SDS011;13818;52.156;5.382;2023-09-12T12:36:20;11.75;;;7.25;;
26042;SDS011;13818;52.156;5.382;2023-09-12T12:38:47;10.65;;;6.53;;
26042;SDS011;13818;52.156;5.382;2023-09-12T12:41:15;9.40;;;5.68;;
26042;SDS011;13818;52.156;5.382;2023-09-12T12:43:42;12.35;;;6.72;;
26042;SDS011;13818;52.156;5.382;2023-09-12T12:46:10;11.63;;;6.97;;
26042;SDS011;13818;52.156;5.382;2023-09-12T12:48:42;9.20;;;5.25;;
26042;SDS011;13818;52.156;5.382;2023-09-12T12:51:13;11.30;;;5.28;;
26042;SDS011;13818;52.156;5.382;2023-09-12T12:53:42;10.48;;;5.00;;
26042;SDS011;13818;52.156;5.382;2023-09-12T12:56:11;12.77;;;6.07;;
26042;SDS011;13818;52.156;5.382;2023-09-12T12:58:45;9.77;;;5.55;;
26042;SDS011;13818;52.156;5.382;2023-09-12T13:01:12;8.73;;;5.28;;
26042;SDS011;13818;52.156;5.382;2023-09-12T13:03:41;10.32;;;5.50;;
26042;SDS011;13818;52.156;5.382;2023-09-12T13:06:07;12.43;;;6.75;;
26042;SDS011;13818;52.156;5.382;2023-09-12T13:08:38;11.38;;;5.05;;
26042;SDS011;13818;52.156;5.382;2023-09-12T13:11:05;14.40;;;5.30;;
26042;SDS011;13818;52.156;5.382;2023-09-12T13:13:31;8.13;;;4.38;;
26042;SDS011;13818;52.156;5.382;2023-09-12T13:15:58;6.10;;;3.55;;
26042;SDS011;13818;52.156;5.382;2023-09-12T13:18:24;5.05;;;3.60;;
26042;SDS011;13818;52.156;5.382;2023-09-12T13:20:52;11.88;;;5.13;;
26042;SDS011;13818;52.156;5.382;2023-09-12T13:23:19;16.83;;;7.28;;
26042;SDS011;13818;52.156;5.382;2023-09-12T13:25:45;11.45;;;6.10;;
26042;SDS011;13818;52.156;5.382;2023-09-12T13:28:11;9.85;;;4.15;;
26042;SDS011;13818;52.156;5.382;2023-09-12T13:30:38;8.05;;;3.28;;
26042;SDS011;13818;52.156;5.382;2023-09-12T13:33:04;5.72;;;2.80;;
26042;SDS011;13818;52.156;5.382;2023-09-12T13:35:31;5.80;;;3.00;;
26042;SDS011;13818;52.156;5.382;2023-09-12T13:37:58;5.53;;;2.65;;
26042;SDS011;13818;52.156;5.382;2023-09-12T13:40:25;5.65;;;2.97;;
26042;SDS011;13818;52.156;5.382;2023-09-12T13:42:52;7.85;;;4.32;;
26042;SDS011;13818;52.156;5.382;2023-09-12T13:45:19;11.88;;;4.45;;
26042;SDS011;13818;52.156;5.382;2023-09-12T13:47:45;9.82;;;4.32;;
26042;SDS011;13818;52.156;5.382;2023-09-12T13:50:12;7.35;;;3.92;;
26042;SDS011;13818;52.156;5.382;2023-09-12T13:52:38;14.00;;;5.30;;
26042;SDS011;13818;52.156;5.382;2023-09-12T13:55:06;11.90;;;5.43;;
26042;SDS011;13818;52.156;5.382;2023-09-12T13:57:38;11.20;;;5.05;;
26042;SDS011;13818;52.156;5.382;2023-09-12T14:00:05;11.02;;;4.20;;
26042;SDS011;13818;52.156;5.382;2023-09-12T14:02:33;6.57;;;3.90;;
26042;SDS011;13818;52.156;5.382;2023-09-12T14:04:59;6.30;;;3.42;;
26042;SDS011;13818;52.156;5.382;2023-09-12T14:07:25;7.32;;;3.92;;
26042;SDS011;13818;52.156;5.382;2023-09-12T14:09:52;8.77;;;4.25;;
26042;SDS011;13818;52.156;5.382;2023-09-12T14:12:22;12.65;;;4.28;;
26042;SDS011;13818;52.156;5.382;2023-09-12T14:14:48;7.28;;;4.40;;
26042;SDS011;13818;52.156;5.382;2023-09-12T14:17:15;7.72;;;4.80;;
26042;SDS011;13818;52.156;5.382;2023-09-12T14:19:41;12.30;;;5.90;;
26042;SDS011;13818;52.156;5.382;2023-09-12T14:22:08;8.18;;;4.72;;
26042;SDS011;13818;52.156;5.382;2023-09-12T14:24:34;7.68;;;4.70;;
26042;SDS011;13818;52.156;5.382;2023-09-12T14:27:01;9.73;;;3.92;;
26042;SDS011;13818;52.156;5.382;2023-09-12T14:29:29;7.07;;;4.10;;
26042;SDS011;13818;52.156;5.382;2023-09-12T14:34:22;8.00;;;4.00;;
26042;SDS011;13818;52.156;5.382;2023-09-12T14:36:51;11.40;;;4.40;;